Weather reports worldwide

Advertisment
Mont Aigoual, France (7560): temperature & dewpoint: 12.01.2020 12:00:00 - 18.01.2020 12:00:00 (CET)Mont Aigoual, France (7560): wind speed & gusts: 12.01.2020 12:00:00 - 18.01.2020 12:00:00 (CET)Mont Aigoual, France (7560): wind direction: 12.01.2020 12:00:00 - 18.01.2020 12:00:00 (CET)Mont Aigoual, France (7560): visibility: 12.01.2020 12:00:00 - 18.01.2020 12:00:00 (CET)Mont Aigoual, France (7560): precipitation: 12.01.2020 12:00:00 - 18.01.2020 12:00:00 (CET)
Date & Time tt [°C] td [°C] ff [km/h] ff [kn] fx [km/h] fx [kn] dd vv [km] rr [mm]
18.01.2020 12:00:00 - - - - - - - - -
18.01.2020 11:00:00 -4,7 -5,2 34 18 58 31 N 20 0,0
18.01.2020 10:00:00 -5,0 -5,5 43 23 58 32 NNW 20 0,0
18.01.2020 09:00:00 -4,8 -5,3 44 24 62 33 N 1,2 0,0
18.01.2020 08:00:00 -4,7 -5,2 39 21 56 30 N 4,5 0,0
18.01.2020 07:00:00 -4,9 -5,4 33 18 60 32 N 20 0,0
18.01.2020 06:00:00 -4,7 -5,2 23 12 82 45 NNW 17 0,0
18.01.2020 05:00:00 -4,7 -5,2 63 34 105 57 NNW 9 0,0
18.01.2020 04:00:00 -4,4 -4,9 79 42 - - NNW 7 0,0
18.01.2020 03:00:00 -3,5 -3,9 72 39 106 58 NNW 0,1 0,0
18.01.2020 02:00:00 -3,0 -3,3 66 36 113 61 NNW 0,1 0,0
18.01.2020 01:00:00 -2,8 -3,1 63 34 101 55 NNW 0,1 0,0
18.01.2020 00:00:00 -2,6 -2,9 61 33 104 56 NW 0,1 0,0
17.01.2020 23:00:00 -2,4 -2,7 72 39 111 60 NNW 0,1 0,0
17.01.2020 22:00:00 -2,5 -2,8 61 33 109 59 NNW 0,1 0,0
17.01.2020 21:00:00 -2,1 -2,2 67 36 119 64 NNW 0,1 0,0
17.01.2020 20:00:00 -1,8 -1,9 77 41 121 65 NNW 0,1 0,0
17.01.2020 19:00:00 -1,5 -1,6 74 40 113 61 NW 0,1 0,0
17.01.2020 18:00:00 -1,5 -1,6 76 41 115 62 NW 0,1 0,2
17.01.2020 17:00:00 -1,5 -1,6 80 43 122 66 NNW 0,1 0,0
17.01.2020 16:00:00 -2,0 -2,1 74 40 109 59 NNW 0,1 0,8
17.01.2020 15:00:00 -2,1 -2,2 66 36 103 56 NW 0,1 2,4
17.01.2020 14:00:00 2,5 2,5 16 9 37 20 SSW 0,1 0,0
17.01.2020 13:00:00 2,6 2,6 13 7 29 16 W 2,1 0,0
17.01.2020 12:00:00 2,8 2,8 22 12 32 18 NW 20 0,0
17.01.2020 11:00:00 2,4 2,4 16 9 27 15 NW 20 0,0
17.01.2020 10:00:00 2,2 2,2 9 5 24 13 WNW 0,2 0,0
17.01.2020 09:00:00 2,3 2,3 22 12 29 15 S 0,1 0,0
17.01.2020 08:00:00 2,3 2,3 20 11 40 22 S - 0,0
17.01.2020 07:00:00 2,3 2,3 31 17 54 29 S - 0,0
17.01.2020 06:00:00 2,3 2,3 40 22 57 31 S - 0,0
17.01.2020 05:00:00 2,2 2,2 46 25 74 40 S - 0,0
17.01.2020 04:00:00 2,2 2,2 45 25 74 40 S - 0,0
17.01.2020 03:00:00 2,0 2,0 51 28 86 47 S - 0,0
17.01.2020 02:00:00 1,6 1,6 60 32 103 55 S - 0,0
17.01.2020 01:00:00 1,5 1,5 65 35 99 54 S - 0,0
17.01.2020 00:00:00 1,5 1,5 61 33 97 52 S - 0,0
16.01.2020 23:00:00 1,3 1,3 61 33 103 56 S - 0,0
16.01.2020 22:00:00 1,1 1,1 69 38 112 61 S - 0,0
16.01.2020 21:00:00 1,4 1,4 68 37 96 52 S - 0,0
16.01.2020 20:00:00 0,9 0,9 62 33 95 51 S - 0,0
16.01.2020 19:00:00 1,4 1,4 61 33 93 50 S - 0,0
16.01.2020 18:00:00 1,2 1,2 41 22 70 38 S - 0,0
16.01.2020 17:00:00 0,7 0,7 59 32 87 47 S 0,1 0,0
16.01.2020 16:00:00 1,3 1,3 49 26 74 40 S - 0,0
16.01.2020 15:00:00 1,8 1,8 45 24 68 37 S - 0,0
16.01.2020 14:00:00 1,6 1,6 49 26 69 37 S - 0,0
16.01.2020 13:00:00 1,5 1,5 43 23 59 32 S - 0,0
16.01.2020 12:00:00 1,3 1,3 44 24 61 33 S - 0,0
16.01.2020 11:00:00 1,2 1,2 41 22 54 29 S - 0,0
16.01.2020 10:00:00 0,9 0,9 37 20 50 27 S 0,1 0,0
16.01.2020 09:00:00 0,8 0,8 34 18 46 25 S - 0,0
16.01.2020 08:00:00 0,3 0,3 33 18 41 22 S 0,1 0,0
16.01.2020 07:00:00 0,2 0,2 29 16 37 20 S 0,1 0,0
16.01.2020 06:00:00 0,1 0,1 21 11 29 16 S 20 0,0
16.01.2020 05:00:00 0,4 0,4 18 10 26 14 S 0,3 0,0
16.01.2020 04:00:00 1,1 1,1 14 8 23 12 SSE 0,1 0,0
16.01.2020 03:00:00 1,4 1,4 15 8 23 12 S - 0,0
16.01.2020 02:00:00 1,2 1,2 11 6 24 13 S - 0,0
16.01.2020 01:00:00 1,2 1,2 18 10 29 16 S 0,1 0,0
16.01.2020 00:00:00 1,3 1,3 20 11 30 16 S - 0,0
15.01.2020 23:00:00 1,0 1,0 23 12 30 16 S - 0,0
15.01.2020 22:00:00 0,9 0,9 26 14 39 21 S 0,1 0,0
15.01.2020 21:00:00 1,3 1,3 31 17 48 26 S - 0,0
15.01.2020 20:00:00 1,5 1,5 30 16 48 26 S - 0,0
15.01.2020 19:00:00 1,0 1,0 34 18 47 26 S - 0,0
15.01.2020 18:00:00 0,9 0,9 37 20 55 30 S - 0,0
15.01.2020 17:00:00 0,8 0,8 39 21 66 36 S - 0,0
15.01.2020 16:00:00 0,9 0,9 46 25 78 42 S - 0,0
15.01.2020 15:00:00 1,2 1,2 41 22 83 45 S - 0,0
15.01.2020 14:00:00 1,0 1,0 58 32 107 58 S - 0,0
15.01.2020 13:00:00 1,0 1,0 59 32 116 63 S - 0,0
15.01.2020 12:00:00 1,1 1,1 71 39 119 65 S - 0,0
15.01.2020 11:00:00 0,8 0,8 81 44 120 65 S - 0,0
15.01.2020 10:00:00 0,5 0,5 76 41 118 64 S - 0,0
15.01.2020 09:00:00 0,4 0,4 81 44 121 65 S - 0,0
15.01.2020 08:00:00 0,1 0,1 70 38 114 62 S - 0,0
15.01.2020 07:00:00 -0,3 -0,3 76 41 132 71 S 0,1 0,0
15.01.2020 06:00:00 0,2 0,2 80 43 129 69 S 0,1 0,0
15.01.2020 05:00:00 0,6 0,6 78 42 125 67 S - 0,0
15.01.2020 04:00:00 1,0 1,0 81 44 125 67 S - 0,0
15.01.2020 03:00:00 0,7 0,7 82 44 117 63 S - 0,0
15.01.2020 02:00:00 0,9 0,9 80 43 117 63 S - 0,0
15.01.2020 01:00:00 0,7 0,7 79 42 116 63 S - 0,0
15.01.2020 00:00:00 1,2 1,2 70 38 112 60 S - 0,0
14.01.2020 23:00:00 0,9 0,9 69 37 103 55 S - 0,0
14.01.2020 22:00:00 1,2 1,2 64 35 98 53 S - 0,0
14.01.2020 21:00:00 0,5 0,5 62 33 93 50 S - 0,0
14.01.2020 20:00:00 0,7 0,7 59 32 94 51 S - 0,0
14.01.2020 19:00:00 0,8 0,8 63 34 89 48 S - 0,0
14.01.2020 18:00:00 0,9 0,9 58 32 92 50 S - 0,0
14.01.2020 17:00:00 1,0 1,0 58 31 88 48 S - 0,0
14.01.2020 16:00:00 0,9 0,9 52 28 81 44 S - 0,0
14.01.2020 15:00:00 1,0 1,0 54 29 87 47 S - 0,0
14.01.2020 14:00:00 0,8 0,8 55 30 79 43 S - 0,0
14.01.2020 13:00:00 0,9 0,9 52 28 86 47 S - 0,0
14.01.2020 12:00:00 1,2 1,2 58 31 90 49 S - 0,0
14.01.2020 11:00:00 1,0 1,0 53 28 78 42 S - 0,0
14.01.2020 10:00:00 0,8 0,8 49 26 65 35 S - 0,0
14.01.2020 09:00:00 0,3 0,3 45 24 67 36 S - 0,0
14.01.2020 08:00:00 -0,1 -0,1 46 25 74 40 S - 0,0
14.01.2020 07:00:00 -0,7 -0,7 42 23 53 28 S 0,1 0,0
14.01.2020 06:00:00 -0,5 -0,5 37 20 49 27 S 0,1 -
14.01.2020 05:00:00 -0,9 -0,9 34 18 50 27 S - 0,0
14.01.2020 04:00:00 -1,4 -1,4 27 15 46 25 S 0,1 0,0
14.01.2020 03:00:00 -1,6 -1,7 10 6 21 11 SE - 0,0
14.01.2020 02:00:00 -1,4 -1,5 15 8 32 18 S 0,1 0,0
14.01.2020 01:00:00 -1,3 -1,4 18 10 37 20 S - 0,0
14.01.2020 00:00:00 -1,6 -1,7 27 14 43 23 S 0,1 0,0
13.01.2020 23:00:00 -1,1 -1,1 33 18 52 28 S - 0,0
13.01.2020 22:00:00 -1,4 -1,5 42 23 55 30 S 0,1 0,0
13.01.2020 21:00:00 -1,4 -1,5 40 22 61 33 S 0,1 0,0
13.01.2020 20:00:00 -1,4 -1,5 38 20 50 27 S 0,1 0,0
13.01.2020 19:00:00 -1,0 -1,1 35 19 46 25 S - 0,0
13.01.2020 18:00:00 -1,6 -1,9 29 16 37 20 S 0,1 0,0
13.01.2020 17:00:00 -0,2 -3,1 30 16 39 21 S 20 0,0
13.01.2020 16:00:00 1,2 -3,7 21 11 33 18 S 20 0,0
13.01.2020 15:00:00 2,5 -4,7 21 11 26 14 S 20 0,0
13.01.2020 14:00:00 2,4 -3,5 22 12 29 16 S 20 0,0
13.01.2020 13:00:00 2,3 -4,7 19 11 33 18 S 20 0,0
13.01.2020 12:00:00 2,9 -5,3 18 10 32 17 S 20 0,0
13.01.2020 11:00:00 3,3 -8,4 22 12 29 16 S 20 0,0
13.01.2020 10:00:00 3,6 -15,7 13 7 18 10 S 20 0,0
13.01.2020 09:00:00 3,6 -18,6 11 6 14 8 SSW 20 0,0
13.01.2020 08:00:00 5,2 -24,0 12 7 15 8 W 20 0,0
13.01.2020 07:00:00 5,5 -25,0 15 8 18 10 WNW 20 0,0
13.01.2020 06:00:00 5,6 -26,2 15 8 18 10 WNW 20 0,0
13.01.2020 05:00:00 5,3 -25,1 14 8 16 9 WNW 20 0,0
13.01.2020 04:00:00 5,1 -26,6 13 7 21 11 W 20 0,0
13.01.2020 03:00:00 3,9 -25,1 18 10 29 16 NW 20 0,0
13.01.2020 02:00:00 4,2 -26,0 26 14 40 21 N 20 0,0
13.01.2020 01:00:00 5,0 -25,4 19 10 36 20 N 20 0,0
13.01.2020 00:00:00 4,2 -18,8 30 16 45 24 N 20 0,0
12.01.2020 23:00:00 4,5 -16,6 30 16 37 20 N 20 0,0
12.01.2020 22:00:00 4,6 -15,3 29 15 45 25 N 20 0,0
12.01.2020 21:00:00 4,3 -23,7 39 21 51 28 N 20 0,0
12.01.2020 20:00:00 4,1 -20,3 42 23 53 29 N 20 0,0
12.01.2020 19:00:00 3,5 -17,4 39 21 48 26 N 20 0,0
12.01.2020 18:00:00 3,7 -16,1 39 21 52 28 N 20 0,0
12.01.2020 17:00:00 3,9 -14,9 32 18 45 24 N 20 0,0
12.01.2020 16:00:00 4,1 -14,7 25 13 33 18 N 20 0,0
12.01.2020 15:00:00 5,1 -16,7 14 8 26 14 NNW 20 0,0
12.01.2020 14:00:00 5,3 -12,7 11 6 19 10 NW 20 0,0
12.01.2020 13:00:00 5,6 -15,7 10 6 17 9 NNW 20 0,0
12.01.2020 12:00:00 5,5 -18,4 6 3 13 7 NW 20 0,0

tt = temperature
td = dewpoint
ff = wind speed
fx = gusts
dd = wind direction
vv = visibility
rr = precipitation

Next stations